createdAt,value
2022-10-23T00:01:32.751Z,99.90
2022-10-23T00:04:02.744Z,99.90
2022-10-23T00:06:32.358Z,99.90
2022-10-23T00:08:59.735Z,99.90
2022-10-23T00:11:28.636Z,99.90
2022-10-23T00:13:59.071Z,99.90
2022-10-23T00:16:27.126Z,99.90
2022-10-23T00:18:54.292Z,99.90
2022-10-23T00:21:21.425Z,99.90
2022-10-23T00:23:48.353Z,99.90
2022-10-23T00:26:15.875Z,99.90
2022-10-23T00:28:48.827Z,99.90
2022-10-23T00:31:16.238Z,99.90
2022-10-23T00:33:44.451Z,99.90
2022-10-23T00:36:13.524Z,99.90
2022-10-23T00:38:44.423Z,99.90
2022-10-23T00:41:20.426Z,99.90
2022-10-23T00:44:08.066Z,99.90
2022-10-23T00:46:36.960Z,99.90
2022-10-23T00:49:05.320Z,99.90
2022-10-23T00:51:57.169Z,99.90
2022-10-23T00:54:29.564Z,99.90
2022-10-23T00:57:01.496Z,99.90
2022-10-23T00:59:29.667Z,99.90
2022-10-23T01:01:56.953Z,99.90
2022-10-23T01:04:25.016Z,99.90
2022-10-23T01:07:03.652Z,99.90
2022-10-23T01:09:36.614Z,99.90
2022-10-23T01:12:19.016Z,99.90
2022-10-23T01:15:20.255Z,99.90
2022-10-23T01:18:26.635Z,99.90
2022-10-23T01:21:18.606Z,99.90
2022-10-23T01:23:51.027Z,99.90
2022-10-23T01:26:29.984Z,99.90
2022-10-23T01:29:08.777Z,99.90
2022-10-23T01:31:39.951Z,99.90
2022-10-23T01:34:15.076Z,99.90
2022-10-23T01:36:47.151Z,99.90
2022-10-23T01:39:21.248Z,99.90
2022-10-23T01:42:04.177Z,99.90
2022-10-23T01:44:46.811Z,99.90
2022-10-23T01:47:17.163Z,99.90
2022-10-23T01:49:56.132Z,99.90
2022-10-23T01:52:23.499Z,99.90
2022-10-23T01:54:56.159Z,99.90
2022-10-23T01:57:27.112Z,99.90
2022-10-23T01:59:59.999Z,99.90
2022-10-23T02:02:28.979Z,99.90
2022-10-23T02:05:10.678Z,99.90
2022-10-23T02:07:38.056Z,99.90
2022-10-23T02:10:08.267Z,99.90
2022-10-23T02:12:44.917Z,99.90
2022-10-23T02:15:33.495Z,99.90
2022-10-23T02:18:26.842Z,99.90
2022-10-23T02:21:18.265Z,99.90
2022-10-23T02:23:59.452Z,99.90
2022-10-23T02:26:40.822Z,99.90
2022-10-23T02:29:16.933Z,99.90
2022-10-23T02:31:45.891Z,99.90
2022-10-23T02:34:13.126Z,99.90
2022-10-23T02:36:41.108Z,99.90
2022-10-23T02:39:09.985Z,99.90
2022-10-23T02:42:14.426Z,99.90
2022-10-23T02:45:02.777Z,99.90
2022-10-23T02:47:53.369Z,99.90
2022-10-23T02:50:36.184Z,99.90
2022-10-23T02:53:29.970Z,99.90
2022-10-23T02:56:03.474Z,99.90
2022-10-23T02:59:07.890Z,99.90
2022-10-23T03:01:46.147Z,99.90
2022-10-23T03:04:16.117Z,99.90
2022-10-23T03:06:43.173Z,99.90
2022-10-23T03:09:15.736Z,99.90
2022-10-23T03:11:42.585Z,99.90
2022-10-23T03:14:11.772Z,99.90
2022-10-23T03:16:38.914Z,99.90
2022-10-23T03:19:05.945Z,99.90
2022-10-23T03:21:33.220Z,99.90
2022-10-23T03:24:01.808Z,99.90
2022-10-23T03:26:35.096Z,99.90
2022-10-23T03:29:02.153Z,99.90
2022-10-23T03:31:29.106Z,99.90
2022-10-23T03:34:00.499Z,99.90
2022-10-23T03:36:28.024Z,99.90
2022-10-23T03:38:55.170Z,99.90
2022-10-23T03:41:22.125Z,99.90
2022-10-23T03:43:49.267Z,99.90
2022-10-23T03:46:16.633Z,99.90
2022-10-23T03:48:43.662Z,99.90
2022-10-23T03:51:11.226Z,99.90
2022-10-23T03:53:40.819Z,99.90
2022-10-23T03:56:07.873Z,99.90
2022-10-23T03:58:34.821Z,99.90
2022-10-23T04:01:02.211Z,99.90
2022-10-23T04:03:29.304Z,99.90
2022-10-23T04:05:56.586Z,99.90
2022-10-23T04:08:23.952Z,99.90
2022-10-23T04:10:54.756Z,99.90
2022-10-23T04:13:31.445Z,99.90
2022-10-23T04:15:58.489Z,99.90
2022-10-23T04:18:25.353Z,99.90
2022-10-23T04:20:52.587Z,99.90
2022-10-23T04:23:19.743Z,99.90
2022-10-23T04:28:24.043Z,99.90
2022-10-23T04:30:51.441Z,99.90
2022-10-23T04:33:18.778Z,99.90
2022-10-23T04:35:48.479Z,99.90
2022-10-23T04:38:16.677Z,99.90
2022-10-23T04:40:44.158Z,99.90
2022-10-23T04:43:11.190Z,99.90
2022-10-23T04:45:40.052Z,99.90
2022-10-23T04:48:07.000Z,99.90
2022-10-23T04:51:05.063Z,99.90
2022-10-23T04:53:54.668Z,99.90
2022-10-23T04:56:42.003Z,99.90
2022-10-23T04:59:13.957Z,99.90
2022-10-23T05:01:42.354Z,99.90
2022-10-23T05:04:10.096Z,99.90
2022-10-23T05:06:57.014Z,99.90
2022-10-23T05:09:56.504Z,99.90
2022-10-23T05:12:30.836Z,99.90
2022-10-23T05:14:57.879Z,99.90
2022-10-23T05:17:34.756Z,99.90
2022-10-23T05:20:06.946Z,99.90
2022-10-23T05:22:37.469Z,99.90
2022-10-23T05:25:10.543Z,99.90
2022-10-23T05:27:37.486Z,99.90
2022-10-23T05:30:09.703Z,99.90
2022-10-23T05:32:38.777Z,99.90
2022-10-23T05:35:11.231Z,99.90
2022-10-23T05:37:41.849Z,99.90
2022-10-23T05:40:17.950Z,99.90
2022-10-23T05:42:46.080Z,99.90
2022-10-23T05:45:16.720Z,99.90
2022-10-23T05:48:10.910Z,99.90
2022-10-23T05:51:05.025Z,99.90
2022-10-23T05:53:49.580Z,99.90
2022-10-23T05:56:42.604Z,99.90
2022-10-23T05:59:32.490Z,99.90
2022-10-23T06:02:22.847Z,99.90
2022-10-23T06:04:56.163Z,99.90
2022-10-23T06:07:30.193Z,99.90
2022-10-23T06:10:00.617Z,99.90
2022-10-23T06:12:27.887Z,99.90
2022-10-23T06:14:54.929Z,99.90
2022-10-23T06:17:29.535Z,99.90
2022-10-23T06:20:02.586Z,99.90
2022-10-23T06:22:34.615Z,99.90
2022-10-23T06:25:15.478Z,99.90
2022-10-23T06:27:44.054Z,99.90
2022-10-23T06:30:12.410Z,99.90
2022-10-23T06:32:40.466Z,99.90
2022-10-23T06:35:12.073Z,99.90
2022-10-23T06:37:39.401Z,99.90
2022-10-23T06:40:11.590Z,99.90
2022-10-23T06:42:58.890Z,99.90
2022-10-23T06:45:56.377Z,99.90
2022-10-23T06:48:43.309Z,99.90
2022-10-23T06:51:18.045Z,99.90
2022-10-23T06:53:46.191Z,99.90
2022-10-23T06:56:32.994Z,99.90
2022-10-23T06:59:01.380Z,99.90
2022-10-23T07:01:30.500Z,99.90
2022-10-23T07:03:57.727Z,99.90
2022-10-23T07:06:27.066Z,99.90
2022-10-23T07:08:54.216Z,99.90
2022-10-23T07:11:44.113Z,99.90
2022-10-23T07:14:11.609Z,99.90
2022-10-23T07:16:38.699Z,99.90
2022-10-23T07:19:07.023Z,99.90
2022-10-23T07:21:52.327Z,99.90
2022-10-23T07:24:32.211Z,99.90
2022-10-23T07:27:01.382Z,99.90
2022-10-23T07:29:30.340Z,99.90
2022-10-23T07:31:58.105Z,99.90
2022-10-23T07:34:45.667Z,99.90
2022-10-23T07:37:42.209Z,99.90
2022-10-23T07:40:09.765Z,99.90
2022-10-23T07:42:43.370Z,99.90
2022-10-23T07:45:11.321Z,99.90
2022-10-23T07:47:41.470Z,99.90
2022-10-23T07:50:09.734Z,99.90
2022-10-23T07:52:37.049Z,99.90
2022-10-23T07:55:11.077Z,99.90
2022-10-23T07:57:44.151Z,99.90
2022-10-23T08:00:21.620Z,99.90
2022-10-23T08:02:56.672Z,99.90
2022-10-23T08:05:24.260Z,99.90
2022-10-23T08:07:57.730Z,99.90
2022-10-23T08:10:24.912Z,99.90
2022-10-23T08:12:52.350Z,99.90
2022-10-23T08:15:24.524Z,99.90
2022-10-23T08:17:57.013Z,99.90
2022-10-23T08:20:41.159Z,99.90
2022-10-23T08:23:10.285Z,99.90
2022-10-23T08:25:37.482Z,99.90
2022-10-23T08:28:06.319Z,99.90
2022-10-23T08:30:40.736Z,99.90
2022-10-23T08:33:08.020Z,99.90
2022-10-23T08:35:38.801Z,99.90
2022-10-23T08:38:07.481Z,99.90
2022-10-23T08:40:44.983Z,99.90
2022-10-23T08:43:48.078Z,99.90
2022-10-23T08:46:37.862Z,97.50
2022-10-23T08:49:38.184Z,97.90
2022-10-23T08:52:25.006Z,98.10
2022-10-23T08:54:58.498Z,98.80
2022-10-23T08:57:34.578Z,99.50
2022-10-23T09:00:08.468Z,99.30
2022-10-23T09:02:51.493Z,99.90
2022-10-23T09:05:37.144Z,99.90
2022-10-23T09:08:35.108Z,99.90
2022-10-23T09:11:03.839Z,99.90
2022-10-23T09:13:45.934Z,99.90
2022-10-23T09:16:34.391Z,99.90
2022-10-23T09:19:02.239Z,99.90
2022-10-23T09:21:29.922Z,99.90
2022-10-23T09:23:57.370Z,99.50
2022-10-23T09:26:24.641Z,99.90
2022-10-23T09:29:19.240Z,99.00
2022-10-23T09:31:57.444Z,98.20
2022-10-23T09:34:29.799Z,97.70
2022-10-23T09:37:00.192Z,98.20
2022-10-23T09:39:32.503Z,97.90
2022-10-23T09:42:02.428Z,99.30
2022-10-23T09:44:32.230Z,99.90
2022-10-23T09:47:06.558Z,99.90
2022-10-23T09:49:34.506Z,99.90
2022-10-23T09:52:03.932Z,99.90
2022-10-23T09:54:34.744Z,99.90
2022-10-23T09:57:25.253Z,99.90
2022-10-23T09:59:55.248Z,99.90
2022-10-23T10:02:33.761Z,99.90
2022-10-23T10:05:37.690Z,99.90
2022-10-23T10:08:24.533Z,99.90
2022-10-23T10:11:01.591Z,99.90
2022-10-23T10:13:36.534Z,99.90
2022-10-23T10:16:09.213Z,99.90
2022-10-23T10:18:45.251Z,99.90
2022-10-23T10:21:25.187Z,99.90
2022-10-23T10:24:21.128Z,99.90
2022-10-23T10:26:55.344Z,99.90
2022-10-23T10:29:30.065Z,99.90
2022-10-23T10:32:21.390Z,99.90
2022-10-23T10:35:08.200Z,99.90
2022-10-23T10:38:07.285Z,99.90
2022-10-23T10:40:40.390Z,99.90
2022-10-23T10:43:42.354Z,99.90
2022-10-23T10:46:32.642Z,98.10
2022-10-23T10:49:12.813Z,99.20
2022-10-23T10:52:15.907Z,97.10
2022-10-23T10:55:03.220Z,96.30
2022-10-23T10:57:34.554Z,93.80
2022-10-23T11:00:12.968Z,92.80
2022-10-23T11:02:53.754Z,92.70
2022-10-23T11:05:42.304Z,89.10
2022-10-23T11:08:18.151Z,88.10
2022-10-23T11:10:47.864Z,87.10
2022-10-23T11:13:35.406Z,87.30
2022-10-23T11:16:05.822Z,88.10
2022-10-23T11:18:33.683Z,84.80
2022-10-23T11:21:25.774Z,82.80
2022-10-23T11:24:23.998Z,81.40
2022-10-23T11:27:02.016Z,77.80
2022-10-23T11:30:00.283Z,80.60
2022-10-23T11:32:54.917Z,81.80
2022-10-23T11:35:33.808Z,78.50
2022-10-23T11:38:32.034Z,81.20
2022-10-23T11:41:16.339Z,84.20
2022-10-23T11:44:01.689Z,84.60
2022-10-23T11:46:35.262Z,83.60
2022-10-23T11:49:06.056Z,85.20
2022-10-23T11:51:37.415Z,88.30
2022-10-23T11:54:13.586Z,91.40
2022-10-23T11:57:17.252Z,94.80
2022-10-23T11:59:50.169Z,96.70
2022-10-23T12:02:32.883Z,99.60
2022-10-23T12:05:28.174Z,99.90
2022-10-23T12:07:58.004Z,99.90
2022-10-23T12:10:34.364Z,99.90
2022-10-23T12:13:04.575Z,99.90
2022-10-23T12:15:34.808Z,99.90
2022-10-23T12:18:16.508Z,99.90
2022-10-23T12:20:46.495Z,99.90
2022-10-23T12:23:28.610Z,99.90
2022-10-23T12:26:15.014Z,99.90
2022-10-23T12:29:10.942Z,99.90
2022-10-23T12:31:54.763Z,99.90
2022-10-23T12:34:35.637Z,99.90
2022-10-23T12:37:26.188Z,99.90
2022-10-23T12:39:55.778Z,99.90
2022-10-23T12:42:25.270Z,99.90
2022-10-23T12:45:33.169Z,99.90
2022-10-23T12:48:00.530Z,99.90
2022-10-23T12:50:30.246Z,99.90
2022-10-23T12:53:01.013Z,99.90
2022-10-23T12:55:58.226Z,99.90
2022-10-23T12:58:35.211Z,99.90
2022-10-23T13:01:06.624Z,99.90
2022-10-23T13:03:34.964Z,99.90
2022-10-23T13:06:03.509Z,99.90
2022-10-23T13:08:40.419Z,99.90
2022-10-23T13:11:28.042Z,99.90
2022-10-23T13:13:58.588Z,99.90
2022-10-23T13:16:27.034Z,99.90
2022-10-23T13:18:54.432Z,99.90
2022-10-23T13:21:29.108Z,99.90
2022-10-23T13:23:56.483Z,99.90
2022-10-23T13:26:44.856Z,99.90
2022-10-23T13:31:58.394Z,99.90
2022-10-23T13:34:27.981Z,99.90
2022-10-23T13:37:22.093Z,99.90
2022-10-23T13:40:04.475Z,99.90
2022-10-23T13:42:31.416Z,99.90
2022-10-23T13:44:58.296Z,99.90
2022-10-23T13:47:25.113Z,99.90
2022-10-23T13:49:51.915Z,99.90
2022-10-23T13:52:22.131Z,99.90
2022-10-23T13:54:50.028Z,99.90
2022-10-23T13:57:16.957Z,99.90
2022-10-23T13:59:43.972Z,99.90
2022-10-23T14:02:29.416Z,99.90
2022-10-23T14:04:56.318Z,99.90
2022-10-23T14:07:23.580Z,99.90
2022-10-23T14:09:50.704Z,99.90
2022-10-23T14:12:18.299Z,99.90
2022-10-23T14:14:45.092Z,99.90
2022-10-23T14:17:11.840Z,99.90
2022-10-23T14:19:38.868Z,99.90
2022-10-23T14:22:05.635Z,99.90
2022-10-23T14:24:32.543Z,99.90
2022-10-23T14:26:59.679Z,99.90
2022-10-23T14:29:26.390Z,99.90
2022-10-23T14:31:53.224Z,99.90
2022-10-23T14:34:20.037Z,99.90
2022-10-23T14:36:56.736Z,99.90
2022-10-23T14:39:30.790Z,99.90
2022-10-23T14:41:57.578Z,99.90
2022-10-23T14:44:24.423Z,99.90
2022-10-23T14:46:51.977Z,99.90
2022-10-23T14:49:18.933Z,99.90
2022-10-23T14:51:45.755Z,99.90
2022-10-23T14:54:12.620Z,99.90
2022-10-23T14:56:40.742Z,99.90
2022-10-23T14:59:09.269Z,99.90
2022-10-23T15:01:43.521Z,99.90
2022-10-23T15:04:14.664Z,99.90
2022-10-23T15:06:42.400Z,99.90
2022-10-23T15:09:09.377Z,99.90
2022-10-23T15:11:36.339Z,99.90
2022-10-23T15:14:03.103Z,99.90
2022-10-23T15:16:30.274Z,99.90
2022-10-23T15:18:57.507Z,99.90
2022-10-23T15:21:24.477Z,99.90
2022-10-23T15:23:51.283Z,99.90
2022-10-23T15:26:22.424Z,99.90
2022-10-23T15:28:56.795Z,99.90
2022-10-23T15:31:44.851Z,99.90
2022-10-23T15:34:15.042Z,99.90
2022-10-23T15:36:42.687Z,99.90
2022-10-23T15:39:11.017Z,99.90
2022-10-23T15:41:40.212Z,99.90
2022-10-23T15:44:08.315Z,99.90
2022-10-23T15:46:35.806Z,99.90
2022-10-23T15:49:02.624Z,99.90
2022-10-23T15:51:29.430Z,99.90
2022-10-23T15:53:57.078Z,99.90
2022-10-23T15:56:25.096Z,99.90
2022-10-23T15:58:52.198Z,99.90
2022-10-23T16:01:19.312Z,99.90
2022-10-23T16:03:46.875Z,99.90
2022-10-23T16:06:15.357Z,99.90
2022-10-23T16:08:43.874Z,99.90
2022-10-23T16:11:20.173Z,99.90
2022-10-23T16:13:47.638Z,99.90
2022-10-23T16:16:14.865Z,99.90
2022-10-23T16:18:43.600Z,99.90
2022-10-23T16:21:22.123Z,99.90
2022-10-23T16:23:50.166Z,99.90
2022-10-23T16:26:18.108Z,99.90
2022-10-23T16:28:47.227Z,99.90
2022-10-23T16:31:20.591Z,99.90
2022-10-23T16:33:48.595Z,99.90
2022-10-23T16:36:16.508Z,99.90
2022-10-23T16:39:19.629Z,99.90
2022-10-23T16:42:05.543Z,99.90
2022-10-23T16:45:01.862Z,99.90
2022-10-23T16:47:30.411Z,99.90
2022-10-23T16:49:57.211Z,99.90
2022-10-23T16:52:25.006Z,99.90
2022-10-23T16:54:51.762Z,99.90
2022-10-23T16:57:18.503Z,99.90
2022-10-23T16:59:45.311Z,99.90
2022-10-23T17:02:12.363Z,99.90
2022-10-23T17:04:39.151Z,99.90
2022-10-23T17:07:06.239Z,99.90
2022-10-23T17:09:33.071Z,99.90
2022-10-23T17:11:59.881Z,99.90
2022-10-23T17:14:29.066Z,99.90
2022-10-23T17:17:04.114Z,99.90
2022-10-23T17:19:47.080Z,99.90
2022-10-23T17:22:15.025Z,99.90
2022-10-23T17:24:45.139Z,99.90
2022-10-23T17:27:14.429Z,99.90
2022-10-23T17:29:41.306Z,99.90
2022-10-23T17:32:08.344Z,99.90
2022-10-23T17:34:35.467Z,99.90
2022-10-23T17:37:02.448Z,99.90
2022-10-23T17:39:30.165Z,99.90
2022-10-23T17:41:57.455Z,99.90
2022-10-23T17:44:24.501Z,99.90
2022-10-23T17:46:53.491Z,99.90
2022-10-23T17:49:20.552Z,99.90
2022-10-23T17:51:57.262Z,99.90
2022-10-23T17:54:26.618Z,99.90
2022-10-23T17:56:53.483Z,99.90
2022-10-23T17:59:20.134Z,99.90
2022-10-23T18:01:48.505Z,99.90
2022-10-23T18:04:17.832Z,99.90
2022-10-23T18:06:47.719Z,99.90
2022-10-23T18:09:14.880Z,99.90
2022-10-23T18:11:45.532Z,99.90
2022-10-23T18:14:15.941Z,99.90
2022-10-23T18:16:42.723Z,99.90
2022-10-23T18:19:10.486Z,99.90
2022-10-23T18:21:38.017Z,99.90
2022-10-23T18:24:05.232Z,99.90
2022-10-23T18:26:35.326Z,99.90
2022-10-23T18:29:07.179Z,99.90
2022-10-23T18:31:35.425Z,99.90
2022-10-23T18:34:04.996Z,99.90
2022-10-23T18:36:36.758Z,99.90
2022-10-23T18:39:06.301Z,99.90
2022-10-23T18:41:38.303Z,99.90
2022-10-23T18:44:05.962Z,99.90
2022-10-23T18:46:32.957Z,99.90
2022-10-23T18:49:00.178Z,99.90
2022-10-23T18:51:32.953Z,99.90
2022-10-23T18:54:09.156Z,99.90
2022-10-23T18:56:36.243Z,99.90
2022-10-23T18:59:05.440Z,99.90
2022-10-23T19:01:33.684Z,99.90
2022-10-23T19:04:01.582Z,99.90
2022-10-23T19:06:29.663Z,99.90
2022-10-23T19:08:57.247Z,99.90
2022-10-23T19:11:26.239Z,99.90
2022-10-23T19:13:53.268Z,99.90
2022-10-23T19:16:27.503Z,99.90
2022-10-23T19:19:01.534Z,99.90
2022-10-23T19:21:32.026Z,99.90
2022-10-23T19:24:03.275Z,99.90
2022-10-23T19:26:31.364Z,99.90
2022-10-23T19:28:58.610Z,99.90
2022-10-23T19:31:26.788Z,99.90
2022-10-23T19:33:53.940Z,99.90
2022-10-23T19:36:23.469Z,99.90
2022-10-23T19:38:51.187Z,99.90
2022-10-23T19:41:18.784Z,99.90
2022-10-23T19:43:45.827Z,99.90
2022-10-23T19:46:12.820Z,99.90
2022-10-23T19:48:44.335Z,99.90
2022-10-23T19:51:13.132Z,99.90
2022-10-23T19:53:41.281Z,99.90
2022-10-23T19:56:10.171Z,99.90
2022-10-23T19:58:37.230Z,99.90
2022-10-23T20:01:19.561Z,99.90
2022-10-23T20:03:48.822Z,99.90
2022-10-23T20:06:29.075Z,99.90
2022-10-23T20:08:57.034Z,99.90
2022-10-23T20:11:30.547Z,99.90
2022-10-23T20:13:57.996Z,99.90
2022-10-23T20:16:27.500Z,99.90
2022-10-23T20:18:54.771Z,99.90
2022-10-23T20:21:21.990Z,99.90
2022-10-23T20:23:48.853Z,99.90
2022-10-23T20:26:17.847Z,99.90
2022-10-23T20:28:47.144Z,99.90
2022-10-23T20:31:15.625Z,99.90
2022-10-23T20:33:43.230Z,99.90
2022-10-23T20:36:25.602Z,99.90
2022-10-23T20:38:52.891Z,99.90
2022-10-23T20:41:20.807Z,99.90
2022-10-23T20:43:47.577Z,99.90
2022-10-23T20:46:14.306Z,99.90
2022-10-23T20:48:43.599Z,99.90
2022-10-23T20:51:13.931Z,99.90
2022-10-23T20:53:42.441Z,99.90
2022-10-23T20:56:31.163Z,99.90
2022-10-23T20:59:07.463Z,99.90
2022-10-23T21:01:35.280Z,99.90
2022-10-23T21:04:03.773Z,99.90
2022-10-23T21:06:46.172Z,99.90
2022-10-23T21:09:22.453Z,99.90
2022-10-23T21:11:49.402Z,99.90
2022-10-23T21:14:16.452Z,99.90
2022-10-23T21:16:46.357Z,99.90
2022-10-23T21:19:15.975Z,99.90
2022-10-23T21:21:43.844Z,99.90
2022-10-23T21:24:14.585Z,99.90
2022-10-23T21:26:41.720Z,99.90
2022-10-23T21:29:24.757Z,99.90
2022-10-23T21:31:57.218Z,99.90
2022-10-23T21:34:25.901Z,99.90
2022-10-23T21:37:11.856Z,99.90
2022-10-23T21:39:40.689Z,99.90
2022-10-23T21:42:08.150Z,99.90
2022-10-23T21:44:35.071Z,99.90
2022-10-23T21:47:02.039Z,99.90
2022-10-23T21:49:28.966Z,99.90
2022-10-23T21:51:55.922Z,99.90
2022-10-23T21:54:22.767Z,99.90
2022-10-23T21:56:51.538Z,99.90
2022-10-23T21:59:21.074Z,99.90
2022-10-23T22:01:49.144Z,99.90
2022-10-23T22:04:18.219Z,99.90
2022-10-23T22:06:47.009Z,99.90
2022-10-23T22:09:16.408Z,99.90
2022-10-23T22:11:43.363Z,99.90
2022-10-23T22:14:10.333Z,99.90
2022-10-23T22:16:37.271Z,99.90
2022-10-23T22:19:04.091Z,99.90
2022-10-23T22:21:31.561Z,99.90
2022-10-23T22:24:00.356Z,99.90
2022-10-23T22:26:38.778Z,99.90
2022-10-23T22:29:08.678Z,99.90
2022-10-23T22:31:36.603Z,99.90
2022-10-23T22:34:18.494Z,99.90
2022-10-23T22:36:53.580Z,99.90
2022-10-23T22:39:20.675Z,99.90
2022-10-23T22:41:47.770Z,99.90
2022-10-23T22:44:15.524Z,99.90
2022-10-23T22:46:42.787Z,99.90
2022-10-23T22:49:09.834Z,99.90
2022-10-23T22:51:37.998Z,99.90
2022-10-23T22:54:05.092Z,99.90
2022-10-23T22:56:32.009Z,99.90
2022-10-23T22:58:59.142Z,99.90
2022-10-23T23:01:36.894Z,99.90
2022-10-23T23:04:13.920Z,99.90
2022-10-23T23:06:51.225Z,99.90
2022-10-23T23:09:18.767Z,99.90
2022-10-23T23:11:51.660Z,99.90
2022-10-23T23:14:23.185Z,99.90
2022-10-23T23:16:52.621Z,99.90
2022-10-23T23:19:20.225Z,99.90
2022-10-23T23:21:47.793Z,99.90
2022-10-23T23:24:15.203Z,99.90
2022-10-23T23:26:42.572Z,99.90
2022-10-23T23:29:09.679Z,99.90
2022-10-23T23:31:36.671Z,99.90
2022-10-23T23:34:03.977Z,99.90
2022-10-23T23:36:31.268Z,99.90
2022-10-23T23:38:59.082Z,99.90
2022-10-23T23:41:27.816Z,99.90
2022-10-23T23:43:57.171Z,99.90
2022-10-23T23:46:24.768Z,99.90
2022-10-23T23:48:51.718Z,99.90
2022-10-23T23:51:21.100Z,99.90
2022-10-23T23:53:48.965Z,99.90
2022-10-23T23:56:16.563Z,99.90
2022-10-23T23:58:43.381Z,99.90
